sensor_id;sensor_type;location;lat;lon;timestamp;P1;durP1;ratioP1;P2;durP2;ratioP2
56997;SDS011;42890;44.244;22.530;2023-02-10T00:00:56;375.45;;;160.80;;
56997;SDS011;42890;44.244;22.530;2023-02-10T00:03:22;436.17;;;208.95;;
56997;SDS011;42890;44.244;22.530;2023-02-10T00:05:48;464.55;;;224.10;;
56997;SDS011;42890;44.244;22.530;2023-02-10T00:08:14;404.10;;;169.77;;
56997;SDS011;42890;44.244;22.530;2023-02-10T00:10:40;281.55;;;122.93;;
56997;SDS011;42890;44.244;22.530;2023-02-10T00:13:06;271.35;;;109.13;;
56997;SDS011;42890;44.244;22.530;2023-02-10T00:15:33;270.88;;;110.32;;
56997;SDS011;42890;44.244;22.530;2023-02-10T00:17:59;169.32;;;80.80;;
56997;SDS011;42890;44.244;22.530;2023-02-10T00:20:25;68.40;;;44.47;;
56997;SDS011;42890;44.244;22.530;2023-02-10T00:22:51;56.00;;;39.08;;
56997;SDS011;42890;44.244;22.530;2023-02-10T00:25:17;101.60;;;57.25;;
56997;SDS011;42890;44.244;22.530;2023-02-10T00:27:43;127.53;;;66.78;;
56997;SDS011;42890;44.244;22.530;2023-02-10T00:30:09;136.88;;;71.38;;
56997;SDS011;42890;44.244;22.530;2023-02-10T00:32:35;112.32;;;63.20;;
56997;SDS011;42890;44.244;22.530;2023-02-10T00:35:05;100.38;;;56.38;;
56997;SDS011;42890;44.244;22.530;2023-02-10T00:37:31;103.35;;;55.60;;
56997;SDS011;42890;44.244;22.530;2023-02-10T00:39:57;81.50;;;48.08;;
56997;SDS011;42890;44.244;22.530;2023-02-10T00:42:23;78.03;;;49.55;;
56997;SDS011;42890;44.244;22.530;2023-02-10T00:44:50;60.78;;;37.45;;
56997;SDS011;42890;44.244;22.530;2023-02-10T00:47:16;54.00;;;37.30;;
56997;SDS011;42890;44.244;22.530;2023-02-10T00:49:42;57.72;;;37.92;;
56997;SDS011;42890;44.244;22.530;2023-02-10T00:52:08;52.30;;;34.75;;
56997;SDS011;42890;44.244;22.530;2023-02-10T00:54:34;38.45;;;27.25;;
56997;SDS011;42890;44.244;22.530;2023-02-10T00:57:00;48.60;;;29.50;;
56997;SDS011;42890;44.244;22.530;2023-02-10T00:59:26;46.83;;;31.85;;
56997;SDS011;42890;44.244;22.530;2023-02-10T01:01:53;43.63;;;33.22;;
56997;SDS011;42890;44.244;22.530;2023-02-10T01:04:19;56.95;;;36.95;;
56997;SDS011;42890;44.244;22.530;2023-02-10T01:06:45;54.25;;;37.78;;
56997;SDS011;42890;44.244;22.530;2023-02-10T01:09:11;51.08;;;37.00;;
56997;SDS011;42890;44.244;22.530;2023-02-10T01:11:37;55.03;;;37.38;;
56997;SDS011;42890;44.244;22.530;2023-02-10T01:14:03;56.13;;;38.13;;
56997;SDS011;42890;44.244;22.530;2023-02-10T01:16:32;58.67;;;38.78;;
56997;SDS011;42890;44.244;22.530;2023-02-10T01:18:58;65.38;;;38.70;;
56997;SDS011;42890;44.244;22.530;2023-02-10T01:21:25;63.22;;;42.90;;
56997;SDS011;42890;44.244;22.530;2023-02-10T01:23:51;60.35;;;39.60;;
56997;SDS011;42890;44.244;22.530;2023-02-10T01:26:17;60.70;;;41.80;;
56997;SDS011;42890;44.244;22.530;2023-02-10T01:28:43;67.03;;;43.38;;
56997;SDS011;42890;44.244;22.530;2023-02-10T01:31:13;66.53;;;45.90;;
56997;SDS011;42890;44.244;22.530;2023-02-10T01:33:39;68.38;;;45.00;;
56997;SDS011;42890;44.244;22.530;2023-02-10T01:36:07;65.85;;;42.53;;
56997;SDS011;42890;44.244;22.530;2023-02-10T01:38:33;54.08;;;38.47;;
56997;SDS011;42890;44.244;22.530;2023-02-10T01:40:59;51.00;;;37.05;;
56997;SDS011;42890;44.244;22.530;2023-02-10T01:43:26;60.40;;;37.58;;
56997;SDS011;42890;44.244;22.530;2023-02-10T01:45:52;45.67;;;34.22;;
56997;SDS011;42890;44.244;22.530;2023-02-10T01:48:18;225.13;;;77.20;;
56997;SDS011;42890;44.244;22.530;2023-02-10T01:53:11;129.90;;;55.67;;
56997;SDS011;42890;44.244;22.530;2023-02-10T01:55:37;89.68;;;45.95;;
56997;SDS011;42890;44.244;22.530;2023-02-10T01:58:06;118.78;;;56.38;;
56997;SDS011;42890;44.244;22.530;2023-02-10T02:00:34;97.15;;;52.30;;
56997;SDS011;42890;44.244;22.530;2023-02-10T02:03:00;119.78;;;53.25;;
56997;SDS011;42890;44.244;22.530;2023-02-10T02:05:28;128.38;;;59.80;;
56997;SDS011;42890;44.244;22.530;2023-02-10T02:07:55;93.50;;;51.40;;
56997;SDS011;42890;44.244;22.530;2023-02-10T02:10:23;69.47;;;42.67;;
56997;SDS011;42890;44.244;22.530;2023-02-10T02:18:09;111.43;;;56.97;;
56997;SDS011;42890;44.244;22.530;2023-02-10T02:29:05;54.70;;;38.58;;
56997;SDS011;42890;44.244;22.530;2023-02-10T02:34:22;178.98;;;75.00;;
56997;SDS011;42890;44.244;22.530;2023-02-10T02:36:57;332.85;;;140.85;;
56997;SDS011;42890;44.244;22.530;2023-02-10T02:39:26;250.02;;;106.20;;
56997;SDS011;42890;44.244;22.530;2023-02-10T02:44:30;329.90;;;144.90;;
56997;SDS011;42890;44.244;22.530;2023-02-10T02:47:09;192.05;;;88.20;;
56997;SDS011;42890;44.244;22.530;2023-02-10T02:52:17;131.65;;;65.45;;
56997;SDS011;42890;44.244;22.530;2023-02-10T03:00:12;65.45;;;40.13;;
56997;SDS011;42890;44.244;22.530;2023-02-10T03:02:39;45.83;;;33.22;;
56997;SDS011;42890;44.244;22.530;2023-02-10T03:05:07;67.47;;;45.00;;
56997;SDS011;42890;44.244;22.530;2023-02-10T03:07:33;75.07;;;49.08;;
56997;SDS011;42890;44.244;22.530;2023-02-10T03:10:00;101.05;;;59.97;;
56997;SDS011;42890;44.244;22.530;2023-02-10T03:12:26;137.30;;;70.35;;
56997;SDS011;42890;44.244;22.530;2023-02-10T03:14:52;97.05;;;54.13;;
56997;SDS011;42890;44.244;22.530;2023-02-10T03:17:18;97.60;;;56.95;;
56997;SDS011;42890;44.244;22.530;2023-02-10T03:19:44;84.35;;;49.05;;
56997;SDS011;42890;44.244;22.530;2023-02-10T03:22:10;60.15;;;42.47;;
56997;SDS011;42890;44.244;22.530;2023-02-10T03:24:37;67.47;;;43.08;;
56997;SDS011;42890;44.244;22.530;2023-02-10T03:27:03;53.63;;;36.22;;
56997;SDS011;42890;44.244;22.530;2023-02-10T03:29:30;72.68;;;45.45;;
56997;SDS011;42890;44.244;22.530;2023-02-10T03:31:56;75.28;;;46.47;;
56997;SDS011;42890;44.244;22.530;2023-02-10T03:34:26;171.38;;;87.22;;
56997;SDS011;42890;44.244;22.530;2023-02-10T03:36:52;92.65;;;55.78;;
56997;SDS011;42890;44.244;22.530;2023-02-10T03:39:18;51.97;;;36.70;;
56997;SDS011;42890;44.244;22.530;2023-02-10T03:41:44;54.13;;;34.15;;
56997;SDS011;42890;44.244;22.530;2023-02-10T03:44:11;60.55;;;37.20;;
56997;SDS011;42890;44.244;22.530;2023-02-10T03:46:37;52.47;;;36.45;;
56997;SDS011;42890;44.244;22.530;2023-02-10T03:49:03;49.53;;;37.05;;
56997;SDS011;42890;44.244;22.530;2023-02-10T03:51:29;51.45;;;35.70;;
56997;SDS011;42890;44.244;22.530;2023-02-10T03:53:55;50.45;;;34.60;;
56997;SDS011;42890;44.244;22.530;2023-02-10T03:56:21;49.45;;;31.45;;
56997;SDS011;42890;44.244;22.530;2023-02-10T03:58:47;51.85;;;33.80;;
56997;SDS011;42890;44.244;22.530;2023-02-10T04:01:14;56.60;;;37.30;;
56997;SDS011;42890;44.244;22.530;2023-02-10T04:03:41;48.78;;;33.55;;
56997;SDS011;42890;44.244;22.530;2023-02-10T04:06:07;57.03;;;41.10;;
56997;SDS011;42890;44.244;22.530;2023-02-10T04:08:33;80.97;;;48.42;;
56997;SDS011;42890;44.244;22.530;2023-02-10T04:10:59;79.32;;;43.08;;
56997;SDS011;42890;44.244;22.530;2023-02-10T04:13:25;66.70;;;38.72;;
56997;SDS011;42890;44.244;22.530;2023-02-10T04:16:02;72.60;;;43.95;;
56997;SDS011;42890;44.244;22.530;2023-02-10T04:18:28;59.78;;;39.85;;
56997;SDS011;42890;44.244;22.530;2023-02-10T04:20:55;98.55;;;55.33;;
56997;SDS011;42890;44.244;22.530;2023-02-10T04:23:21;81.93;;;51.35;;
56997;SDS011;42890;44.244;22.530;2023-02-10T04:25:47;42.33;;;30.10;;
56997;SDS011;42890;44.244;22.530;2023-02-10T04:28:13;48.55;;;34.55;;
56997;SDS011;42890;44.244;22.530;2023-02-10T04:30:39;46.70;;;33.53;;
56997;SDS011;42890;44.244;22.530;2023-02-10T04:33:05;56.22;;;37.05;;
56997;SDS011;42890;44.244;22.530;2023-02-10T04:35:31;59.08;;;42.42;;
56997;SDS011;42890;44.244;22.530;2023-02-10T04:37:57;49.88;;;35.55;;
56997;SDS011;42890;44.244;22.530;2023-02-10T04:40:24;52.10;;;36.10;;
56997;SDS011;42890;44.244;22.530;2023-02-10T04:42:50;51.40;;;34.92;;
56997;SDS011;42890;44.244;22.530;2023-02-10T04:45:16;51.50;;;35.47;;
56997;SDS011;42890;44.244;22.530;2023-02-10T04:47:42;53.55;;;34.78;;
56997;SDS011;42890;44.244;22.530;2023-02-10T04:50:08;51.03;;;32.38;;
56997;SDS011;42890;44.244;22.530;2023-02-10T04:52:34;48.83;;;34.75;;
56997;SDS011;42890;44.244;22.530;2023-02-10T04:55:00;50.72;;;35.30;;
56997;SDS011;42890;44.244;22.530;2023-02-10T04:57:26;50.30;;;34.70;;
56997;SDS011;42890;44.244;22.530;2023-02-10T04:59:52;48.65;;;35.40;;
56997;SDS011;42890;44.244;22.530;2023-02-10T05:02:18;49.97;;;36.40;;
56997;SDS011;42890;44.244;22.530;2023-02-10T05:04:44;71.22;;;44.17;;
56997;SDS011;42890;44.244;22.530;2023-02-10T05:07:11;122.70;;;64.40;;
56997;SDS011;42890;44.244;22.530;2023-02-10T05:09:37;148.10;;;72.60;;
56997;SDS011;42890;44.244;22.530;2023-02-10T05:12:03;148.20;;;75.97;;
56997;SDS011;42890;44.244;22.530;2023-02-10T05:14:29;162.52;;;78.63;;
56997;SDS011;42890;44.244;22.530;2023-02-10T05:16:55;123.28;;;62.03;;
56997;SDS011;42890;44.244;22.530;2023-02-10T05:19:21;49.05;;;36.13;;
56997;SDS011;42890;44.244;22.530;2023-02-10T05:21:47;59.88;;;38.85;;
56997;SDS011;42890;44.244;22.530;2023-02-10T05:24:13;56.00;;;35.97;;
56997;SDS011;42890;44.244;22.530;2023-02-10T05:26:39;68.45;;;42.00;;
56997;SDS011;42890;44.244;22.530;2023-02-10T05:29:06;66.95;;;45.28;;
56997;SDS011;42890;44.244;22.530;2023-02-10T05:31:32;71.55;;;42.95;;
56997;SDS011;42890;44.244;22.530;2023-02-10T05:33:58;63.88;;;41.72;;
56997;SDS011;42890;44.244;22.530;2023-02-10T05:36:24;78.57;;;47.65;;
56997;SDS011;42890;44.244;22.530;2023-02-10T05:38:50;64.78;;;39.50;;
56997;SDS011;42890;44.244;22.530;2023-02-10T05:41:35;45.97;;;34.40;;
56997;SDS011;42890;44.244;22.530;2023-02-10T05:44:01;56.35;;;37.65;;
56997;SDS011;42890;44.244;22.530;2023-02-10T05:46:27;57.85;;;38.33;;
56997;SDS011;42890;44.244;22.530;2023-02-10T05:48:53;60.05;;;41.25;;
56997;SDS011;42890;44.244;22.530;2023-02-10T05:51:19;55.45;;;38.83;;
56997;SDS011;42890;44.244;22.530;2023-02-10T05:53:45;55.40;;;38.25;;
56997;SDS011;42890;44.244;22.530;2023-02-10T05:56:11;65.95;;;39.10;;
56997;SDS011;42890;44.244;22.530;2023-02-10T05:58:37;318.15;;;125.18;;
56997;SDS011;42890;44.244;22.530;2023-02-10T06:01:07;155.02;;;68.82;;
56997;SDS011;42890;44.244;22.530;2023-02-10T06:03:33;60.03;;;41.15;;
56997;SDS011;42890;44.244;22.530;2023-02-10T06:05:59;408.25;;;161.73;;
56997;SDS011;42890;44.244;22.530;2023-02-10T06:08:26;62.88;;;41.80;;
56997;SDS011;42890;44.244;22.530;2023-02-10T06:10:52;53.08;;;35.83;;
56997;SDS011;42890;44.244;22.530;2023-02-10T06:13:19;58.80;;;38.35;;
56997;SDS011;42890;44.244;22.530;2023-02-10T06:15:45;65.72;;;43.63;;
56997;SDS011;42890;44.244;22.530;2023-02-10T06:18:11;54.75;;;37.47;;
56997;SDS011;42890;44.244;22.530;2023-02-10T06:20:37;51.67;;;37.35;;
56997;SDS011;42890;44.244;22.530;2023-02-10T06:23:03;56.20;;;37.80;;
56997;SDS011;42890;44.244;22.530;2023-02-10T06:25:29;53.45;;;37.30;;
56997;SDS011;42890;44.244;22.530;2023-02-10T06:27:55;51.92;;;36.40;;
56997;SDS011;42890;44.244;22.530;2023-02-10T06:30:21;58.00;;;37.60;;
56997;SDS011;42890;44.244;22.530;2023-02-10T06:32:47;57.58;;;39.08;;
56997;SDS011;42890;44.244;22.530;2023-02-10T06:35:13;61.90;;;38.20;;
56997;SDS011;42890;44.244;22.530;2023-02-10T06:37:39;52.85;;;38.28;;
56997;SDS011;42890;44.244;22.530;2023-02-10T06:40:06;65.75;;;42.97;;
56997;SDS011;42890;44.244;22.530;2023-02-10T06:42:32;60.22;;;41.45;;
56997;SDS011;42890;44.244;22.530;2023-02-10T06:44:58;139.32;;;63.45;;
56997;SDS011;42890;44.244;22.530;2023-02-10T06:47:24;206.32;;;77.93;;
56997;SDS011;42890;44.244;22.530;2023-02-10T06:49:50;276.95;;;93.80;;
56997;SDS011;42890;44.244;22.530;2023-02-10T06:52:16;405.83;;;137.90;;
56997;SDS011;42890;44.244;22.530;2023-02-10T06:54:43;590.13;;;293.77;;
56997;SDS011;42890;44.244;22.530;2023-02-10T06:57:09;451.95;;;241.43;;
56997;SDS011;42890;44.244;22.530;2023-02-10T06:59:35;427.98;;;218.93;;
56997;SDS011;42890;44.244;22.530;2023-02-10T07:02:01;439.88;;;230.27;;
56997;SDS011;42890;44.244;22.530;2023-02-10T07:04:29;470.98;;;267.55;;
56997;SDS011;42890;44.244;22.530;2023-02-10T07:06:55;489.08;;;283.10;;
56997;SDS011;42890;44.244;22.530;2023-02-10T07:09:21;524.65;;;298.88;;
56997;SDS011;42890;44.244;22.530;2023-02-10T07:11:48;543.65;;;307.42;;
56997;SDS011;42890;44.244;22.530;2023-02-10T07:14:14;591.60;;;353.25;;
56997;SDS011;42890;44.244;22.530;2023-02-10T07:16:40;594.03;;;358.02;;
56997;SDS011;42890;44.244;22.530;2023-02-10T07:19:06;593.08;;;366.83;;
56997;SDS011;42890;44.244;22.530;2023-02-10T07:21:33;572.90;;;346.20;;
56997;SDS011;42890;44.244;22.530;2023-02-10T07:23:59;574.47;;;354.02;;
56997;SDS011;42890;44.244;22.530;2023-02-10T07:26:26;588.63;;;364.60;;
56997;SDS011;42890;44.244;22.530;2023-02-10T07:28:53;588.60;;;350.45;;
56997;SDS011;42890;44.244;22.530;2023-02-10T07:31:19;575.90;;;351.90;;
56997;SDS011;42890;44.244;22.530;2023-02-10T07:33:45;581.97;;;365.10;;
56997;SDS011;42890;44.244;22.530;2023-02-10T07:36:11;571.10;;;353.08;;
56997;SDS011;42890;44.244;22.530;2023-02-10T07:38:37;565.28;;;343.88;;
56997;SDS011;42890;44.244;22.530;2023-02-10T07:41:04;548.60;;;332.70;;
56997;SDS011;42890;44.244;22.530;2023-02-10T07:43:31;494.95;;;289.67;;
56997;SDS011;42890;44.244;22.530;2023-02-10T07:45:57;464.48;;;265.70;;
56997;SDS011;42890;44.244;22.530;2023-02-10T07:48:23;479.02;;;278.15;;
56997;SDS011;42890;44.244;22.530;2023-02-10T07:50:49;471.38;;;277.77;;
56997;SDS011;42890;44.244;22.530;2023-02-10T07:53:17;430.40;;;236.85;;
56997;SDS011;42890;44.244;22.530;2023-02-10T07:55:43;305.10;;;154.07;;
56997;SDS011;42890;44.244;22.530;2023-02-10T07:58:09;278.38;;;129.27;;
56997;SDS011;42890;44.244;22.530;2023-02-10T08:00:36;212.20;;;106.80;;
56997;SDS011;42890;44.244;22.530;2023-02-10T08:03:02;218.00;;;112.75;;
56997;SDS011;42890;44.244;22.530;2023-02-10T08:05:29;234.07;;;116.53;;
56997;SDS011;42890;44.244;22.530;2023-02-10T08:07:55;214.98;;;111.15;;
56997;SDS011;42890;44.244;22.530;2023-02-10T08:10:21;214.80;;;111.80;;
56997;SDS011;42890;44.244;22.530;2023-02-10T08:12:48;234.80;;;122.28;;
56997;SDS011;42890;44.244;22.530;2023-02-10T08:15:14;237.52;;;118.00;;
56997;SDS011;42890;44.244;22.530;2023-02-10T08:17:43;218.23;;;114.47;;
56997;SDS011;42890;44.244;22.530;2023-02-10T08:20:10;201.70;;;107.47;;
56997;SDS011;42890;44.244;22.530;2023-02-10T08:22:36;186.52;;;99.07;;
56997;SDS011;42890;44.244;22.530;2023-02-10T08:25:03;188.88;;;100.85;;
56997;SDS011;42890;44.244;22.530;2023-02-10T08:27:29;185.32;;;94.05;;
56997;SDS011;42890;44.244;22.530;2023-02-10T08:29:55;150.95;;;81.10;;
56997;SDS011;42890;44.244;22.530;2023-02-10T08:32:22;112.70;;;71.32;;
56997;SDS011;42890;44.244;22.530;2023-02-10T08:34:48;127.50;;;74.07;;
56997;SDS011;42890;44.244;22.530;2023-02-10T08:37:15;188.35;;;87.68;;
56997;SDS011;42890;44.244;22.530;2023-02-10T08:39:42;145.63;;;79.85;;
56997;SDS011;42890;44.244;22.530;2023-02-10T08:42:08;141.07;;;76.65;;
56997;SDS011;42890;44.244;22.530;2023-02-10T08:44:34;147.75;;;77.63;;
56997;SDS011;42890;44.244;22.530;2023-02-10T08:47:00;161.43;;;85.88;;
56997;SDS011;42890;44.244;22.530;2023-02-10T08:49:26;296.02;;;116.60;;
56997;SDS011;42890;44.244;22.530;2023-02-10T08:51:54;325.67;;;116.88;;
56997;SDS011;42890;44.244;22.530;2023-02-10T08:54:20;156.63;;;73.10;;
56997;SDS011;42890;44.244;22.530;2023-02-10T08:56:47;113.97;;;66.25;;
56997;SDS011;42890;44.244;22.530;2023-02-10T08:59:13;98.00;;;64.85;;
56997;SDS011;42890;44.244;22.530;2023-02-10T09:01:39;104.28;;;65.78;;
56997;SDS011;42890;44.244;22.530;2023-02-10T09:04:06;118.85;;;68.00;;
56997;SDS011;42890;44.244;22.530;2023-02-10T09:06:33;94.15;;;63.17;;
56997;SDS011;42890;44.244;22.530;2023-02-10T09:09:07;228.27;;;94.73;;
56997;SDS011;42890;44.244;22.530;2023-02-10T09:11:33;84.75;;;58.88;;
56997;SDS011;42890;44.244;22.530;2023-02-10T09:13:59;104.63;;;59.25;;
56997;SDS011;42890;44.244;22.530;2023-02-10T09:16:26;89.45;;;59.33;;
56997;SDS011;42890;44.244;22.530;2023-02-10T09:18:52;97.47;;;60.00;;
56997;SDS011;42890;44.244;22.530;2023-02-10T09:21:19;155.45;;;73.88;;
56997;SDS011;42890;44.244;22.530;2023-02-10T09:23:45;66.78;;;49.78;;
56997;SDS011;42890;44.244;22.530;2023-02-10T09:26:11;120.32;;;62.97;;
56997;SDS011;42890;44.244;22.530;2023-02-10T09:28:37;70.07;;;51.13;;
56997;SDS011;42890;44.244;22.530;2023-02-10T09:31:07;61.10;;;45.17;;
56997;SDS011;42890;44.244;22.530;2023-02-10T09:33:33;46.58;;;36.95;;
56997;SDS011;42890;44.244;22.530;2023-02-10T09:36:01;44.33;;;35.30;;
56997;SDS011;42890;44.244;22.530;2023-02-10T09:38:27;63.58;;;46.78;;
56997;SDS011;42890;44.244;22.530;2023-02-10T09:44:00;43.63;;;34.40;;
56997;SDS011;42890;44.244;22.530;2023-02-10T09:51:47;47.88;;;36.13;;
56997;SDS011;42890;44.244;22.530;2023-02-10T09:54:17;89.30;;;44.88;;
56997;SDS011;42890;44.244;22.530;2023-02-10T09:56:44;52.28;;;38.22;;
56997;SDS011;42890;44.244;22.530;2023-02-10T09:59:12;78.82;;;44.85;;
56997;SDS011;42890;44.244;22.530;2023-02-10T10:01:44;56.88;;;37.58;;
56997;SDS011;42890;44.244;22.530;2023-02-10T10:04:13;137.75;;;56.30;;
56997;SDS011;42890;44.244;22.530;2023-02-10T10:06:41;40.78;;;29.90;;
56997;SDS011;42890;44.244;22.530;2023-02-10T10:14:40;46.55;;;36.17;;
56997;SDS011;42890;44.244;22.530;2023-02-10T10:25:03;44.35;;;33.67;;
56997;SDS011;42890;44.244;22.530;2023-02-10T10:28:18;43.55;;;33.65;;
56997;SDS011;42890;44.244;22.530;2023-02-10T10:30:18;75.05;;;41.95;;
56997;SDS011;42890;44.244;22.530;2023-02-10T10:32:48;41.17;;;32.63;;
56997;SDS011;42890;44.244;22.530;2023-02-10T10:35:19;48.15;;;41.17;;
56997;SDS011;42890;44.244;22.530;2023-02-10T10:37:46;42.80;;;33.83;;
56997;SDS011;42890;44.244;22.530;2023-02-10T10:40:20;40.92;;;34.40;;
56997;SDS011;42890;44.244;22.530;2023-02-10T10:42:52;49.03;;;34.85;;
56997;SDS011;42890;44.244;22.530;2023-02-10T10:45:32;68.25;;;41.70;;
56997;SDS011;42890;44.244;22.530;2023-02-10T10:48:06;137.20;;;70.45;;
56997;SDS011;42890;44.244;22.530;2023-02-10T10:50:33;52.17;;;38.53;;
56997;SDS011;42890;44.244;22.530;2023-02-10T10:53:00;65.72;;;49.45;;
56997;SDS011;42890;44.244;22.530;2023-02-10T10:58:18;58.20;;;41.97;;
56997;SDS011;42890;44.244;22.530;2023-02-10T11:00:51;55.10;;;41.17;;
56997;SDS011;42890;44.244;22.530;2023-02-10T11:03:18;43.92;;;36.20;;
56997;SDS011;42890;44.244;22.530;2023-02-10T11:05:44;38.58;;;32.78;;
56997;SDS011;42890;44.244;22.530;2023-02-10T11:08:25;60.08;;;43.42;;
56997;SDS011;42890;44.244;22.530;2023-02-10T11:10:56;34.80;;;30.50;;
56997;SDS011;42890;44.244;22.530;2023-02-10T11:13:24;37.05;;;29.13;;
56997;SDS011;42890;44.244;22.530;2023-02-10T11:16:04;41.45;;;32.25;;
56997;SDS011;42890;44.244;22.530;2023-02-10T11:18:31;41.20;;;32.28;;
56997;SDS011;42890;44.244;22.530;2023-02-10T11:21:02;56.17;;;40.03;;
56997;SDS011;42890;44.244;22.530;2023-02-10T11:23:29;52.95;;;42.85;;
56997;SDS011;42890;44.244;22.530;2023-02-10T11:25:58;42.40;;;35.47;;
56997;SDS011;42890;44.244;22.530;2023-02-10T11:28:25;49.63;;;37.78;;
56997;SDS011;42890;44.244;22.530;2023-02-10T11:30:55;42.67;;;36.50;;
56997;SDS011;42890;44.244;22.530;2023-02-10T11:33:24;45.75;;;40.25;;
56997;SDS011;42890;44.244;22.530;2023-02-10T11:35:52;37.15;;;29.23;;
56997;SDS011;42890;44.244;22.530;2023-02-10T11:38:22;47.65;;;39.17;;
56997;SDS011;42890;44.244;22.530;2023-02-10T11:40:54;63.08;;;49.08;;
56997;SDS011;42890;44.244;22.530;2023-02-10T11:43:22;43.45;;;36.95;;
56997;SDS011;42890;44.244;22.530;2023-02-10T11:45:51;42.90;;;35.60;;
56997;SDS011;42890;44.244;22.530;2023-02-10T11:48:18;41.05;;;31.45;;
56997;SDS011;42890;44.244;22.530;2023-02-10T11:50:45;41.10;;;35.00;;
56997;SDS011;42890;44.244;22.530;2023-02-10T11:53:27;41.22;;;34.83;;
56997;SDS011;42890;44.244;22.530;2023-02-10T11:56:05;36.65;;;32.13;;
56997;SDS011;42890;44.244;22.530;2023-02-10T12:01:33;48.47;;;40.72;;
56997;SDS011;42890;44.244;22.530;2023-02-10T12:04:09;85.93;;;44.22;;
56997;SDS011;42890;44.244;22.530;2023-02-10T12:06:47;44.80;;;32.55;;
56997;SDS011;42890;44.244;22.530;2023-02-10T12:09:33;85.05;;;45.58;;
56997;SDS011;42890;44.244;22.530;2023-02-10T12:27:33;41.90;;;35.50;;
56997;SDS011;42890;44.244;22.530;2023-02-10T12:30:19;40.90;;;34.38;;
56997;SDS011;42890;44.244;22.530;2023-02-10T12:32:57;43.63;;;34.88;;
56997;SDS011;42890;44.244;22.530;2023-02-10T12:40:30;39.42;;;34.30;;
56997;SDS011;42890;44.244;22.530;2023-02-10T12:43:05;33.30;;;29.83;;
56997;SDS011;42890;44.244;22.530;2023-02-10T12:51:19;61.13;;;46.72;;
56997;SDS011;42890;44.244;22.530;2023-02-10T12:53:48;44.88;;;36.47;;
56997;SDS011;42890;44.244;22.530;2023-02-10T12:56:23;61.72;;;43.17;;
56997;SDS011;42890;44.244;22.530;2023-02-10T12:58:59;29.88;;;26.77;;
56997;SDS011;42890;44.244;22.530;2023-02-10T13:01:34;33.22;;;29.85;;
56997;SDS011;42890;44.244;22.530;2023-02-10T13:04:08;41.63;;;37.42;;
56997;SDS011;42890;44.244;22.530;2023-02-10T13:06:39;32.33;;;29.10;;
56997;SDS011;42890;44.244;22.530;2023-02-10T13:09:11;35.17;;;30.80;;
56997;SDS011;42890;44.244;22.530;2023-02-10T13:14:20;45.08;;;38.03;;
56997;SDS011;42890;44.244;22.530;2023-02-10T13:16:54;38.90;;;34.88;;
56997;SDS011;42890;44.244;22.530;2023-02-10T13:19:33;34.45;;;30.92;;
56997;SDS011;42890;44.244;22.530;2023-02-10T13:22:10;41.35;;;37.28;;
56997;SDS011;42890;44.244;22.530;2023-02-10T13:24:43;44.55;;;40.35;;
56997;SDS011;42890;44.244;22.530;2023-02-10T13:35:07;40.35;;;36.35;;
56997;SDS011;42890;44.244;22.530;2023-02-10T13:37:44;40.40;;;36.55;;
56997;SDS011;42890;44.244;22.530;2023-02-10T13:40:25;47.08;;;42.70;;
56997;SDS011;42890;44.244;22.530;2023-02-10T13:42:52;47.10;;;42.75;;
56997;SDS011;42890;44.244;22.530;2023-02-10T13:45:22;43.97;;;39.72;;
56997;SDS011;42890;44.244;22.530;2023-02-10T13:47:58;45.35;;;41.03;;
56997;SDS011;42890;44.244;22.530;2023-02-10T13:50:30;44.53;;;40.30;;
56997;SDS011;42890;44.244;22.530;2023-02-10T13:53:00;44.67;;;40.45;;
56997;SDS011;42890;44.244;22.530;2023-02-10T14:00:42;44.85;;;40.05;;
56997;SDS011;42890;44.244;22.530;2023-02-10T14:10:55;52.25;;;46.97;;
56997;SDS011;42890;44.244;22.530;2023-02-10T14:15:59;56.30;;;50.90;;
56997;SDS011;42890;44.244;22.530;2023-02-10T14:18:27;58.83;;;52.95;;
56997;SDS011;42890;44.244;22.530;2023-02-10T14:21:13;61.85;;;55.83;;
56997;SDS011;42890;44.244;22.530;2023-02-10T14:23:41;56.25;;;50.50;;
56997;SDS011;42890;44.244;22.530;2023-02-10T14:26:15;58.55;;;52.85;;
56997;SDS011;42890;44.244;22.530;2023-02-10T14:28:42;60.65;;;54.42;;
56997;SDS011;42890;44.244;22.530;2023-02-10T14:31:13;61.45;;;55.30;;
56997;SDS011;42890;44.244;22.530;2023-02-10T14:33:41;63.20;;;57.00;;
56997;SDS011;42890;44.244;22.530;2023-02-10T14:36:17;71.80;;;64.20;;
56997;SDS011;42890;44.244;22.530;2023-02-10T14:38:44;69.32;;;61.97;;
56997;SDS011;42890;44.244;22.530;2023-02-10T14:41:11;70.82;;;62.30;;
56997;SDS011;42890;44.244;22.530;2023-02-10T14:43:38;72.47;;;60.58;;
56997;SDS011;42890;44.244;22.530;2023-02-10T14:46:05;69.03;;;60.60;;
56997;SDS011;42890;44.244;22.530;2023-02-10T14:48:31;74.63;;;60.05;;
56997;SDS011;42890;44.244;22.530;2023-02-10T14:50:58;76.90;;;61.58;;
56997;SDS011;42890;44.244;22.530;2023-02-10T14:53:24;70.40;;;62.58;;
56997;SDS011;42890;44.244;22.530;2023-02-10T14:55:54;70.85;;;61.60;;
56997;SDS011;42890;44.244;22.530;2023-02-10T14:58:21;73.63;;;59.72;;
56997;SDS011;42890;44.244;22.530;2023-02-10T15:03:31;73.25;;;58.50;;
56997;SDS011;42890;44.244;22.530;2023-02-10T15:05:57;75.07;;;60.55;;
56997;SDS011;42890;44.244;22.530;2023-02-10T15:11:08;65.68;;;55.83;;
56997;SDS011;42890;44.244;22.530;2023-02-10T15:13:39;68.43;;;58.35;;
56997;SDS011;42890;44.244;22.530;2023-02-10T15:16:06;84.47;;;63.47;;
56997;SDS011;42890;44.244;22.530;2023-02-10T15:18:34;71.05;;;57.42;;
56997;SDS011;42890;44.244;22.530;2023-02-10T15:21:03;65.45;;;56.35;;
56997;SDS011;42890;44.244;22.530;2023-02-10T15:23:30;74.95;;;57.28;;
56997;SDS011;42890;44.244;22.530;2023-02-10T15:28:29;84.10;;;60.58;;
56997;SDS011;42890;44.244;22.530;2023-02-10T15:30:56;75.93;;;58.00;;
56997;SDS011;42890;44.244;22.530;2023-02-10T15:33:30;76.70;;;59.42;;
56997;SDS011;42890;44.244;22.530;2023-02-10T15:44:01;76.25;;;54.42;;
56997;SDS011;42890;44.244;22.530;2023-02-10T15:46:29;82.25;;;57.15;;
56997;SDS011;42890;44.244;22.530;2023-02-10T15:49:08;84.88;;;56.28;;
56997;SDS011;42890;44.244;22.530;2023-02-10T15:51:41;68.22;;;53.55;;
56997;SDS011;42890;44.244;22.530;2023-02-10T15:54:12;66.32;;;51.85;;
56997;SDS011;42890;44.244;22.530;2023-02-10T15:56:38;65.82;;;52.55;;
56997;SDS011;42890;44.244;22.530;2023-02-10T15:59:15;71.95;;;54.42;;
56997;SDS011;42890;44.244;22.530;2023-02-10T16:01:41;94.55;;;62.75;;
56997;SDS011;42890;44.244;22.530;2023-02-10T16:04:07;114.53;;;68.63;;
56997;SDS011;42890;44.244;22.530;2023-02-10T16:06:35;74.90;;;57.28;;
56997;SDS011;42890;44.244;22.530;2023-02-10T16:09:01;64.18;;;51.75;;
56997;SDS011;42890;44.244;22.530;2023-02-10T16:11:27;63.55;;;49.92;;
56997;SDS011;42890;44.244;22.530;2023-02-10T16:13:53;60.95;;;49.13;;